Time;durP1;ratioP1;P1;durP2;ratioP2;P2;SDS_P1;SDS_P2;PMS_P1;PMS_P2;Temp;Humidity;BMP_temperature;BMP_pressure;BME280_temperature;BME280_humidity;BME280_pressure;Samples;Min_cycle;Max_cycle;Signal;HPM_P1;HPM_P2
2022/10/21 00:02:16;;;;;;;31.83;22.90;;;11.30;99.90;;;;;;4826904;29;89756;-28
2022/10/21 00:04:42;;;;;;;31.30;24.25;;;11.30;99.90;;;;;;4826171;29;90389;-33
2022/10/21 00:07:08;;;;;;;25.60;22.85;;;11.30;99.90;;;;;;4826925;29;90182;-27
2022/10/21 00:09:33;;;;;;;29.63;24.38;;;11.30;99.90;;;;;;4826499;29;90418;-28
2022/10/21 00:11:59;;;;;;;28.13;21.33;;;11.40;99.90;;;;;;4826288;29;89370;-30
2022/10/21 00:14:24;;;;;;;33.75;22.92;;;11.30;99.90;;;;;;4826627;29;90024;-29
2022/10/21 00:16:50;;;;;;;30.17;21.95;;;11.30;99.90;;;;;;4825462;29;90642;-27
2022/10/21 00:19:15;;;;;;;34.92;23.67;;;11.30;99.90;;;;;;4826832;29;90202;-29
2022/10/21 00:21:41;;;;;;;34.50;25.90;;;11.40;99.90;;;;;;4826185;29;90197;-28
2022/10/21 00:24:07;;;;;;;28.10;22.35;;;11.30;99.90;;;;;;4826878;29;89477;-30
2022/10/21 00:26:33;;;;;;;36.33;24.27;;;11.30;99.90;;;;;;4825148;29;90239;-29
2022/10/21 00:28:59;;;;;;;30.83;23.05;;;11.20;99.90;;;;;;4826147;29;89626;-30
2022/10/21 00:31:25;;;;;;;35.47;24.08;;;11.20;99.90;;;;;;4825879;29;88616;-28
2022/10/21 00:33:51;;;;;;;34.60;24.10;;;11.20;99.90;;;;;;4826110;29;90332;-31
2022/10/21 00:36:17;;;;;;;28.10;21.95;;;11.20;99.90;;;;;;4826599;29;89711;-28
2022/10/21 00:38:45;;;;;;;31.00;23.10;;;11.30;99.90;;;;;;4825282;29;89571;-27
2022/10/21 00:41:12;;;;;;;30.80;22.90;;;11.30;99.90;;;;;;4825232;29;90278;-30
2022/10/21 00:44:01;;;;;;;28.67;22.75;;;11.20;99.90;;;;;;4826257;29;90329;-30
2022/10/21 00:46:44;;;;;;;24.35;21.73;;;11.20;99.90;;;;;;4826247;29;89759;-31
2022/10/21 00:49:36;;;;;;;22.77;18.67;;;11.20;99.90;;;;;;4813151;29;89576;-31
2022/10/21 00:52:04;;;;;;;33.17;22.52;;;11.20;99.90;;;;;;4825687;29;89487;-31
2022/10/21 00:54:31;;;;;;;26.00;21.98;;;11.20;99.90;;;;;;4825994;29;90043;-29
2022/10/21 00:56:58;;;;;;;29.77;22.73;;;11.20;99.90;;;;;;4825589;29;89558;-32
2022/10/21 00:59:28;;;;;;;28.77;20.90;;;11.10;99.90;;;;;;4826177;29;90201;-28
2022/10/21 01:01:54;;;;;;;24.70;20.38;;;11.10;99.90;;;;;;4825157;29;90295;-32
2022/10/21 01:04:21;;;;;;;30.08;22.27;;;11.10;99.90;;;;;;4825749;29;90129;-28
2022/10/21 01:06:46;;;;;;;23.90;19.60;;;11.10;99.90;;;;;;4824890;29;89918;-29
2022/10/21 01:09:13;;;;;;;27.73;21.42;;;11.10;99.90;;;;;;4825697;29;90570;-30
2022/10/21 01:11:44;;;;;;;26.27;21.58;;;11.10;99.90;;;;;;4824784;29;87851;-31
2022/10/21 01:15:10;;;;;;;27.38;21.90;;;11.00;99.90;;;;;;4825986;29;90241;-31
2022/10/21 01:17:53;;;;;;;26.08;19.73;;;11.10;99.90;;;;;;4760636;29;90590;-29
2022/10/21 01:20:36;;;;;;;27.55;24.08;;;11.10;99.90;;;;;;4767554;29;88831;-30
2022/10/21 01:23:21;;;;;;;23.80;20.88;;;11.10;99.90;;;;;;4807835;29;90076;-30
2022/10/21 01:26:17;;;;;;;27.83;21.23;;;11.20;99.90;;;;;;4822947;29;90190;-31
2022/10/21 01:29:13;;;;;;;30.40;22.08;;;11.20;99.90;;;;;;4822825;29;90126;-29
2022/10/21 01:32:00;;;;;;;30.10;21.13;;;11.10;99.90;;;;;;4824909;29;89639;-33
2022/10/21 01:34:44;;;;;;;29.50;24.02;;;11.10;99.90;;;;;;4824987;29;90022;-31
2022/10/21 01:37:21;;;;;;;27.88;22.42;;;11.20;99.90;;;;;;4824772;29;89736;-28
2022/10/21 01:39:49;;;;;;;36.28;25.27;;;11.20;99.90;;;;;;4824629;29;90341;-29
2022/10/21 01:42:49;;;;;;;27.55;21.73;;;11.20;99.90;;;;;;4824911;29;89046;-29
2022/10/21 01:45:21;;;;;;;41.08;25.50;;;11.30;99.90;;;;;;4814564;29;89006;-31
2022/10/21 01:47:54;;;;;;;32.83;25.90;;;11.20;99.90;;;;;;4824464;29;90277;-29
2022/10/21 01:50:24;;;;;;;26.15;22.38;;;11.20;99.90;;;;;;4825045;29;89634;-29
2022/10/21 01:52:58;;;;;;;24.10;18.60;;;11.20;99.90;;;;;;4825484;29;89873;-33
2022/10/21 01:55:28;;;;;;;22.52;19.35;;;11.20;99.90;;;;;;4825075;29;87619;-29
2022/10/21 01:58:01;;;;;;;23.63;19.27;;;11.20;99.90;;;;;;4824658;29;90185;-28
2022/10/21 02:00:28;;;;;;;33.45;23.40;;;11.20;99.90;;;;;;4824006;29;89863;-31
2022/10/21 02:02:56;;;;;;;22.67;20.38;;;11.20;99.90;;;;;;4825080;29;90594;-28
2022/10/21 02:05:27;;;;;;;32.42;22.42;;;11.20;99.90;;;;;;4824343;29;88973;-33
2022/10/21 02:07:54;;;;;;;29.48;21.05;;;11.20;99.90;;;;;;4824838;29;90861;-28
2022/10/21 02:10:22;;;;;;;31.35;23.48;;;11.20;99.90;;;;;;4824300;29;89451;-30
2022/10/21 02:12:52;;;;;;;25.30;22.65;;;11.20;99.90;;;;;;4824774;29;89660;-31
2022/10/21 02:15:20;;;;;;;31.25;20.80;;;11.30;99.90;;;;;;4825405;29;88284;-29
2022/10/21 02:17:53;;;;;;;30.55;21.25;;;11.30;99.90;;;;;;4824428;29;90305;-30
2022/10/21 02:20:21;;;;;;;25.77;22.55;;;11.40;99.90;;;;;;4824529;29;89244;-32
2022/10/21 02:22:48;;;;;;;27.58;22.33;;;11.40;99.90;;;;;;4825745;29;90056;-31
2022/10/21 02:25:21;;;;;;;26.60;20.25;;;11.40;99.90;;;;;;4828054;29;89461;-28
2022/10/21 02:27:47;;;;;;;30.13;24.30;;;11.50;99.90;;;;;;4827851;29;90349;-31
2022/10/21 02:30:13;;;;;;;30.48;21.13;;;11.50;99.90;;;;;;4828059;29;89694;-32
2022/10/21 02:32:50;;;;;;;30.58;22.30;;;11.50;99.90;;;;;;4827101;29;91120;-33
2022/10/21 02:35:19;;;;;;;32.90;21.58;;;11.50;99.90;;;;;;4827735;29;87583;-28
2022/10/21 02:37:49;;;;;;;29.52;20.67;;;11.50;99.90;;;;;;4826928;29;90340;-30
2022/10/21 02:40:43;;;;;;;30.55;21.95;;;11.60;99.90;;;;;;4828167;29;89253;-31
2022/10/21 02:43:15;;;;;;;31.08;24.80;;;11.70;99.90;;;;;;4827516;29;89694;-30
2022/10/21 02:45:41;;;;;;;28.15;21.73;;;11.70;99.90;;;;;;4827556;29;88247;-27
2022/10/21 02:48:06;;;;;;;32.03;23.63;;;11.80;99.90;;;;;;4827943;29;90386;-28
2022/10/21 02:50:32;;;;;;;29.48;22.70;;;11.90;99.90;;;;;;4827359;29;90612;-27
2022/10/21 02:52:58;;;;;;;38.88;25.58;;;11.90;99.90;;;;;;4827796;29;90499;-29
2022/10/21 02:55:23;;;;;;;32.67;24.48;;;11.90;99.90;;;;;;4827560;29;88858;-31
2022/10/21 02:57:49;;;;;;;34.92;23.10;;;12.00;99.90;;;;;;4827193;29;90045;-29
2022/10/21 03:00:15;;;;;;;34.03;22.85;;;12.00;99.90;;;;;;4827773;29;89954;-28
2022/10/21 03:02:41;;;;;;;30.13;24.17;;;12.00;99.90;;;;;;4810628;29;89539;-32
2022/10/21 03:05:08;;;;;;;28.75;23.75;;;12.00;99.90;;;;;;4828264;29;89897;-28
2022/10/21 03:07:34;;;;;;;30.00;22.67;;;12.00;99.90;;;;;;4826950;29;90580;-29
2022/10/21 03:09:59;;;;;;;27.85;22.02;;;12.00;99.90;;;;;;4826800;29;89130;-29
2022/10/21 03:12:25;;;;;;;35.67;24.20;;;12.00;99.90;;;;;;4827599;29;89502;-28
2022/10/21 03:14:51;;;;;;;40.70;23.60;;;12.00;99.90;;;;;;4826645;29;89183;-28
2022/10/21 03:17:16;;;;;;;32.15;21.77;;;12.00;99.90;;;;;;4827507;29;90121;-31
2022/10/21 03:19:42;;;;;;;34.65;23.40;;;12.00;99.90;;;;;;4826724;29;89410;-31
2022/10/21 03:22:07;;;;;;;24.63;20.23;;;12.00;99.90;;;;;;4826978;29;89798;-29
2022/10/21 03:24:33;;;;;;;41.42;26.10;;;12.00;99.90;;;;;;4827033;29;88551;-28
2022/10/21 03:26:58;;;;;;;35.25;21.80;;;12.00;99.90;;;;;;4826925;29;90771;-29
2022/10/21 03:29:24;;;;;;;38.38;23.38;;;12.00;99.90;;;;;;4827327;29;90535;-28
2022/10/21 03:31:50;;;;;;;36.08;23.15;;;12.00;99.90;;;;;;4825783;29;89725;-27
2022/10/21 03:34:16;;;;;;;33.08;21.40;;;12.00;99.90;;;;;;4825889;29;88384;-28
2022/10/21 03:36:41;;;;;;;28.90;22.15;;;11.90;99.90;;;;;;4826713;29;90148;-28
2022/10/21 03:39:07;;;;;;;31.70;20.88;;;11.90;99.90;;;;;;4826817;29;90685;-31
2022/10/21 03:41:33;;;;;;;57.78;26.00;;;11.90;99.90;;;;;;4826630;29;90477;-29
2022/10/21 03:43:58;;;;;;;227.68;46.13;;;11.90;99.90;;;;;;4826797;29;89972;-32
2022/10/21 03:46:24;;;;;;;35.15;20.85;;;11.80;99.90;;;;;;4826897;29;90466;-29
2022/10/21 03:48:49;;;;;;;31.88;19.73;;;11.80;99.90;;;;;;4826923;29;91188;-29
2022/10/21 03:51:15;;;;;;;41.42;21.50;;;11.80;99.90;;;;;;4827047;29;89672;-29
2022/10/21 03:53:40;;;;;;;29.83;20.45;;;11.80;99.90;;;;;;4826616;29;90305;-27
2022/10/21 03:56:06;;;;;;;27.02;19.65;;;11.70;99.90;;;;;;4826420;29;90242;-30
2022/10/21 03:58:34;;;;;;;29.33;20.85;;;11.70;99.90;;;;;;4826831;29;89797;-29
2022/10/21 04:01:00;;;;;;;33.00;22.42;;;11.70;99.90;;;;;;4825789;29;90037;-30
2022/10/21 04:03:26;;;;;;;21.45;17.63;;;11.70;99.90;;;;;;4826580;29;90528;-32
2022/10/21 04:05:52;;;;;;;27.38;19.08;;;11.70;99.90;;;;;;4826327;29;90351;-30
2022/10/21 04:08:17;;;;;;;31.05;20.13;;;11.70;99.90;;;;;;4825947;29;89801;-28
2022/10/21 04:10:44;;;;;;;31.73;20.38;;;11.60;99.90;;;;;;4826398;29;89486;-32
2022/10/21 04:13:09;;;;;;;27.50;19.63;;;11.60;99.90;;;;;;4826437;29;89472;-28
2022/10/21 04:15:35;;;;;;;23.02;18.25;;;11.60;99.90;;;;;;4826726;29;89989;-33
2022/10/21 04:18:01;;;;;;;28.95;18.48;;;11.60;99.90;;;;;;4826315;29;89587;-30
2022/10/21 04:20:26;;;;;;;32.75;19.90;;;11.60;99.90;;;;;;4826485;29;90405;-32
2022/10/21 04:22:52;;;;;;;21.98;19.25;;;11.60;99.90;;;;;;4826115;29;88722;-27
2022/10/21 04:25:17;;;;;;;22.70;18.80;;;11.60;99.90;;;;;;4826309;29;90075;-29
2022/10/21 04:27:43;;;;;;;28.27;19.92;;;11.60;99.90;;;;;;4825488;29;91363;-27
2022/10/21 04:30:09;;;;;;;37.92;22.65;;;11.60;99.90;;;;;;4826132;29;90572;-29
2022/10/21 04:32:35;;;;;;;21.27;18.88;;;11.60;99.90;;;;;;4865056;23;89799;-27
2022/10/21 04:35:00;;;;;;;26.15;19.67;;;11.60;99.90;;;;;;4844561;29;91808;-29
2022/10/21 04:37:26;;;;;;;28.65;20.70;;;11.60;99.90;;;;;;4844049;29;90177;-29
2022/10/21 04:39:51;;;;;;;29.70;20.30;;;11.50;99.90;;;;;;4844559;29;89526;-31
2022/10/21 04:42:17;;;;;;;19.80;17.60;;;11.40;99.90;;;;;;4844612;29;89154;-28
2022/10/21 04:44:43;;;;;;;27.20;19.02;;;11.40;99.90;;;;;;4845050;29;90404;-29
2022/10/21 04:47:08;;;;;;;24.27;18.55;;;11.40;99.90;;;;;;4844218;29;90324;-30
2022/10/21 04:49:34;;;;;;;22.17;19.27;;;11.40;99.90;;;;;;4844933;29;89829;-30
2022/10/21 04:51:59;;;;;;;27.63;20.15;;;11.40;99.90;;;;;;4843884;29;90611;-31
2022/10/21 04:54:25;;;;;;;32.35;20.60;;;11.40;99.90;;;;;;4838228;29;90203;-29
2022/10/21 04:56:50;;;;;;;24.20;20.95;;;11.40;99.90;;;;;;4844580;29;89749;-29
2022/10/21 04:59:16;;;;;;;22.15;18.42;;;11.40;99.90;;;;;;4844785;29;89590;-29
2022/10/21 05:01:42;;;;;;;34.40;20.83;;;11.30;99.90;;;;;;4844636;29;89161;-31
2022/10/21 05:04:07;;;;;;;29.52;18.38;;;11.30;99.90;;;;;;4843755;29;90118;-32
2022/10/21 05:06:33;;;;;;;23.02;18.67;;;11.30;99.90;;;;;;4844175;29;90079;-31
2022/10/21 05:08:58;;;;;;;24.40;17.85;;;11.30;99.90;;;;;;4844179;29;90193;-28
2022/10/21 05:11:24;;;;;;;22.35;18.98;;;11.30;99.90;;;;;;4843797;29;89485;-31
2022/10/21 05:13:49;;;;;;;31.10;20.20;;;11.30;99.90;;;;;;4844225;29;90280;-28
2022/10/21 05:16:15;;;;;;;28.63;19.70;;;11.30;99.90;;;;;;4843096;29;90587;-30
2022/10/21 05:18:41;;;;;;;26.50;18.83;;;11.30;99.90;;;;;;4844359;29;90146;-28
2022/10/21 05:21:06;;;;;;;27.63;19.98;;;11.30;99.90;;;;;;4843848;29;89054;-27
2022/10/21 05:23:32;;;;;;;21.63;16.90;;;11.20;99.90;;;;;;4843913;29;89086;-30
2022/10/21 05:25:57;;;;;;;22.75;18.80;;;11.20;99.90;;;;;;4843961;29;89649;-29
2022/10/21 05:28:23;;;;;;;22.77;18.85;;;11.20;99.90;;;;;;4843457;29;90099;-31
2022/10/21 05:30:49;;;;;;;36.92;20.92;;;11.20;99.90;;;;;;4844552;29;89668;-28
2022/10/21 05:33:15;;;;;;;40.60;21.90;;;11.20;99.90;;;;;;4843300;29;90190;-29
2022/10/21 05:35:41;;;;;;;22.08;18.98;;;11.20;99.90;;;;;;4843783;29;89598;-29
2022/10/21 05:38:06;;;;;;;25.02;18.33;;;11.20;99.90;;;;;;4843609;29;91008;-28
2022/10/21 05:40:32;;;;;;;23.70;18.83;;;11.20;99.90;;;;;;4843616;29;88293;-31
2022/10/21 05:42:58;;;;;;;36.67;23.67;;;11.20;99.90;;;;;;4844105;29;90462;-27
2022/10/21 05:45:24;;;;;;;18.42;15.02;;;11.30;99.90;;;;;;4843651;29;89622;-28
2022/10/21 05:47:49;;;;;;;21.40;19.10;;;11.20;99.90;;;;;;4843790;29;89525;-31
2022/10/21 05:50:15;;;;;;;27.05;18.48;;;11.20;99.90;;;;;;4844178;29;88942;-32
2022/10/21 05:52:41;;;;;;;26.58;20.02;;;11.20;99.90;;;;;;4843202;29;90219;-31
2022/10/21 05:55:08;;;;;;;27.45;18.33;;;11.20;99.90;;;;;;4843905;29;90782;-27
2022/10/21 05:57:34;;;;;;;21.02;17.92;;;11.20;99.90;;;;;;4842754;29;90732;-28
2022/10/21 06:00:00;;;;;;;32.05;18.67;;;11.10;99.90;;;;;;4843890;29;89372;-32
2022/10/21 06:02:26;;;;;;;25.40;18.00;;;11.10;99.90;;;;;;4843928;29;90059;-29
2022/10/21 06:04:51;;;;;;;27.88;20.55;;;11.10;99.90;;;;;;4842562;29;90639;-31
2022/10/21 06:07:17;;;;;;;23.73;18.88;;;11.10;99.90;;;;;;4837829;29;90569;-28
2022/10/21 06:09:43;;;;;;;28.13;18.67;;;11.10;99.90;;;;;;4825615;29;88809;-31
2022/10/21 06:12:08;;;;;;;33.35;20.35;;;11.10;99.90;;;;;;4825201;29;90231;-30
2022/10/21 06:14:35;;;;;;;27.13;17.92;;;11.10;99.90;;;;;;4824252;29;89763;-29
2022/10/21 06:17:01;;;;;;;23.23;18.52;;;11.10;99.90;;;;;;4824261;29;89960;-31
2022/10/21 06:19:27;;;;;;;29.25;20.55;;;11.10;99.90;;;;;;4825171;29;89982;-27
2022/10/21 06:21:53;;;;;;;25.38;19.00;;;11.10;99.90;;;;;;4824730;29;91043;-28
2022/10/21 06:24:19;;;;;;;27.75;20.33;;;11.10;99.90;;;;;;4825238;29;89735;-28
2022/10/21 06:26:44;;;;;;;25.77;18.58;;;11.10;99.90;;;;;;4823899;29;89501;-30
2022/10/21 06:29:10;;;;;;;28.17;19.92;;;11.10;99.90;;;;;;4823861;29;90827;-28
2022/10/21 06:31:36;;;;;;;33.17;21.23;;;11.10;99.90;;;;;;4823891;29;91065;-31
2022/10/21 06:34:02;;;;;;;30.73;22.27;;;11.20;99.90;;;;;;4826596;29;89970;-29
2022/10/21 06:36:29;;;;;;;23.45;19.35;;;11.20;99.90;;;;;;4843198;29;90673;-30
2022/10/21 06:38:54;;;;;;;29.48;20.10;;;11.20;99.90;;;;;;4843227;29;88033;-27
2022/10/21 06:41:20;;;;;;;25.30;19.10;;;11.20;99.90;;;;;;4842647;29;90372;-28
2022/10/21 06:43:45;;;;;;;22.00;18.35;;;11.20;99.90;;;;;;4843648;29;90053;-30
2022/10/21 06:46:13;;;;;;;23.80;18.55;;;11.20;99.90;;;;;;4843227;29;88487;-29
2022/10/21 06:48:39;;;;;;;39.27;22.47;;;11.20;99.90;;;;;;4843232;29;89532;-32
2022/10/21 06:51:23;;;;;;;44.95;21.08;;;11.30;99.90;;;;;;4843203;29;91106;-28
2022/10/21 06:53:55;;;;;;;27.17;20.60;;;11.30;99.90;;;;;;4835820;29;90901;-28
2022/10/21 06:56:21;;;;;;;22.48;19.70;;;11.30;99.90;;;;;;4840775;29;90995;-30
2022/10/21 06:58:48;;;;;;;31.30;21.38;;;11.40;99.90;;;;;;4841059;29;87696;-30
2022/10/21 07:01:15;;;;;;;32.90;20.55;;;11.30;99.90;;;;;;4841431;29;90444;-30
2022/10/21 07:03:41;;;;;;;27.15;21.05;;;11.30;99.90;;;;;;4840874;29;89701;-27
2022/10/21 07:06:07;;;;;;;26.02;20.27;;;11.40;99.90;;;;;;4821938;29;89928;-29
2022/10/21 07:08:32;;;;;;;35.38;22.25;;;11.40;99.90;;;;;;4821976;29;90352;-29
2022/10/21 07:10:58;;;;;;;25.40;20.52;;;11.40;99.90;;;;;;4825019;29;90322;-29
2022/10/21 07:13:24;;;;;;;31.17;23.02;;;11.50;99.90;;;;;;4829306;29;89466;-32
2022/10/21 07:15:59;;;;;;;26.50;21.05;;;11.50;99.90;;;;;;4843265;29;90099;-29
2022/10/21 07:18:24;;;;;;;31.27;21.90;;;11.60;99.90;;;;;;4843455;29;90123;-33
2022/10/21 07:20:50;;;;;;;28.02;21.27;;;11.60;99.90;;;;;;4844761;29;90354;-30
2022/10/21 07:23:16;;;;;;;25.08;19.45;;;11.70;99.90;;;;;;4844232;29;89084;-31
2022/10/21 07:25:42;;;;;;;30.80;21.23;;;11.70;99.90;;;;;;4843699;29;89529;-29
2022/10/21 07:28:07;;;;;;;30.17;20.88;;;11.80;99.90;;;;;;4843549;29;89414;-30
2022/10/21 07:30:39;;;;;;;31.23;21.48;;;11.80;99.90;;;;;;4843523;29;90663;-30
2022/10/21 07:33:04;;;;;;;34.72;24.00;;;11.90;99.90;;;;;;4843200;29;89763;-28
2022/10/21 07:35:30;;;;;;;32.33;22.98;;;11.90;99.90;;;;;;4843845;29;88827;-28
2022/10/21 07:37:55;;;;;;;28.92;22.73;;;12.00;99.90;;;;;;4842763;29;88827;-30
2022/10/21 07:40:21;;;;;;;37.80;23.73;;;12.00;99.90;;;;;;4843766;29;90468;-28
2022/10/21 07:42:47;;;;;;;32.42;24.25;;;12.10;99.90;;;;;;4842700;29;90790;-30
2022/10/21 07:45:12;;;;;;;31.70;24.63;;;12.10;99.90;;;;;;4843567;29;89535;-28
2022/10/21 07:47:38;;;;;;;37.03;24.63;;;12.30;99.90;;;;;;4844284;29;89501;-29
2022/10/21 07:50:04;;;;;;;30.40;23.73;;;12.40;99.90;;;;;;4842429;29;90596;-30
2022/10/21 07:52:29;;;;;;;31.48;22.23;;;12.60;99.90;;;;;;4829610;29;90306;-30
2022/10/21 07:54:55;;;;;;;29.83;23.27;;;12.70;99.90;;;;;;4811646;29;88825;-28
2022/10/21 07:57:20;;;;;;;29.83;22.10;;;12.70;99.90;;;;;;4825430;29;90460;-27
2022/10/21 07:59:46;;;;;;;30.48;20.52;;;12.70;99.90;;;;;;4839509;29;90385;-28
2022/10/21 08:02:13;;;;;;;28.08;23.63;;;12.80;99.90;;;;;;4843427;29;89654;-29
2022/10/21 08:04:39;;;;;;;26.95;21.33;;;12.90;99.90;;;;;;4843155;29;89468;-27
2022/10/21 08:07:04;;;;;;;25.73;21.40;;;13.10;99.90;;;;;;4842506;29;90358;-28
2022/10/21 08:09:30;;;;;;;27.80;22.38;;;13.20;99.90;;;;;;4843758;29;90033;-32
2022/10/21 08:11:56;;;;;;;32.85;23.58;;;13.30;99.90;;;;;;4842618;29;89648;-28
2022/10/21 08:14:22;;;;;;;30.45;21.85;;;13.40;99.90;;;;;;4843256;29;89053;-28
2022/10/21 08:16:54;;;;;;;25.45;20.45;;;13.50;99.90;;;;;;4843137;29;91349;-29
2022/10/21 08:19:26;;;;;;;24.58;18.67;;;13.60;99.90;;;;;;4843000;29;90393;-31
2022/10/21 08:21:51;;;;;;;26.33;21.85;;;13.60;99.90;;;;;;4842340;29;89178;-31
2022/10/21 08:24:17;;;;;;;27.73;19.42;;;13.80;99.90;;;;;;4843558;29;90390;-31
2022/10/21 08:26:42;;;;;;;25.38;18.25;;;13.90;99.90;;;;;;4842240;29;89905;-31
2022/10/21 08:29:08;;;;;;;24.88;20.15;;;13.90;99.90;;;;;;4843434;29;89901;-30
2022/10/21 08:31:33;;;;;;;25.35;18.98;;;14.10;99.90;;;;;;4841997;29;90672;-29
2022/10/21 08:33:59;;;;;;;19.95;15.65;;;14.20;99.90;;;;;;4842646;29;90896;-30
2022/10/21 08:36:25;;;;;;;18.42;15.13;;;14.20;99.90;;;;;;4843351;29;89411;-28
2022/10/21 08:38:52;;;;;;;23.35;17.00;;;14.40;99.90;;;;;;4841979;29;90315;-29
2022/10/21 08:41:26;;;;;;;19.63;15.45;;;14.50;99.90;;;;;;4842856;29;89613;-32
2022/10/21 08:43:54;;;;;;;19.90;15.70;;;14.60;99.90;;;;;;4842047;29;90626;-30
2022/10/21 08:46:25;;;;;;;16.67;14.40;;;14.60;99.90;;;;;;4830204;29;89793;-29
2022/10/21 08:48:57;;;;;;;21.38;15.25;;;14.60;99.90;;;;;;4824820;29;89237;-29
2022/10/21 08:51:30;;;;;;;18.90;16.65;;;14.60;99.90;;;;;;4822897;29;90963;-28
2022/10/21 08:54:02;;;;;;;18.10;13.95;;;14.60;99.90;;;;;;4823949;29;90076;-31
2022/10/21 08:56:29;;;;;;;23.00;16.38;;;14.60;99.90;;;;;;4821783;29;88456;-29
2022/10/21 08:58:55;;;;;;;18.92;14.25;;;14.50;99.90;;;;;;4823167;29;90983;-31
2022/10/21 09:01:41;;;;;;;21.13;14.73;;;14.50;99.90;;;;;;4823093;29;89586;-28
2022/10/21 09:04:14;;;;;;;19.80;16.13;;;14.50;99.90;;;;;;4822426;29;89622;-28
2022/10/21 09:06:51;;;;;;;19.65;14.50;;;14.50;99.90;;;;;;4823813;29;89333;-30
2022/10/21 09:09:34;;;;;;;19.37;13.57;;;14.50;99.90;;;;;;4823191;29;90449;-31
2022/10/21 09:12:28;;;;;;;20.92;14.55;;;14.50;99.90;;;;;;4822654;29;89420;-32
2022/10/21 09:15:05;;;;;;;19.50;13.65;;;14.60;99.90;;;;;;4822778;29;89884;-29
2022/10/21 09:18:10;;;;;;;16.57;14.73;;;14.60;99.90;;;;;;4822591;29;89702;-28
2022/10/21 09:21:21;;;;;;;18.33;13.52;;;14.70;99.90;;;;;;4815484;29;90048;-28
2022/10/21 09:24:08;;;;;;;19.25;15.45;;;14.80;99.90;;;;;;4754141;29;91411;-31
2022/10/21 09:26:43;;;;;;;19.98;14.15;;;14.90;99.90;;;;;;4764355;29;92640;-28
2022/10/21 09:29:26;;;;;;;15.48;13.88;;;14.90;99.90;;;;;;4819170;29;88070;-30
2022/10/21 09:31:55;;;;;;;24.00;14.45;;;15.00;99.90;;;;;;4839429;29;88735;-31
2022/10/21 09:34:43;;;;;;;21.48;14.35;;;15.10;99.90;;;;;;4827689;29;89174;-29
2022/10/21 09:37:25;;;;;;;13.48;12.18;;;15.20;99.90;;;;;;4821905;29;88659;-28
2022/10/21 09:40:16;;;;;;;17.73;12.70;;;15.30;99.90;;;;;;4812064;29;88744;-32
2022/10/21 09:42:42;;;;;;;16.05;13.15;;;15.40;99.90;;;;;;4822754;29;90052;-31
2022/10/21 09:45:16;;;;;;;14.90;12.63;;;15.50;99.90;;;;;;4823343;29;90267;-30
2022/10/21 09:47:42;;;;;;;14.80;12.55;;;15.50;99.90;;;;;;4822070;29;89043;-29
2022/10/21 09:50:15;;;;;;;20.33;12.65;;;15.50;99.90;;;;;;4822099;29;89073;-28
2022/10/21 09:52:47;;;;;;;13.68;12.18;;;15.50;99.90;;;;;;4822218;29;89788;-30
2022/10/21 09:55:14;;;;;;;13.77;11.13;;;15.50;99.90;;;;;;4822459;29;89607;-29
2022/10/21 09:57:53;;;;;;;14.45;12.05;;;15.50;99.90;;;;;;4822251;29;89320;-29
2022/10/21 10:00:18;;;;;;;17.75;13.25;;;15.50;99.90;;;;;;4812471;29;89703;-33
2022/10/21 10:02:45;;;;;;;13.40;11.95;;;15.40;99.90;;;;;;4821203;29;89612;-28
2022/10/21 10:05:35;;;;;;;15.85;10.88;;;15.40;99.90;;;;;;4821690;29;89975;-31
2022/10/21 10:08:20;;;;;;;15.18;13.43;;;15.40;99.90;;;;;;4821771;29;90177;-29
2022/10/21 10:10:45;;;;;;;17.00;12.23;;;15.40;99.90;;;;;;4822360;29;88272;-28
2022/10/21 10:13:18;;;;;;;14.90;12.00;;;15.40;99.90;;;;;;4804812;29;91984;-29
2022/10/21 10:15:44;;;;;;;13.93;11.68;;;15.40;99.90;;;;;;4820603;29;91517;-30
2022/10/21 10:18:20;;;;;;;16.63;11.52;;;15.40;99.90;;;;;;4821676;29;90677;-29
2022/10/21 10:21:02;;;;;;;14.98;11.18;;;15.50;99.90;;;;;;4822381;29;89477;-28
2022/10/21 10:23:27;;;;;;;14.05;12.27;;;15.50;99.90;;;;;;4822377;29;90385;-29
2022/10/21 10:25:53;;;;;;;19.10;12.85;;;15.50;99.90;;;;;;4821979;29;89809;-30
2022/10/21 10:28:23;;;;;;;18.38;12.05;;;15.50;99.90;;;;;;4822166;29;90172;-28
2022/10/21 10:30:53;;;;;;;15.70;11.00;;;15.50;99.90;;;;;;4822567;29;88390;-30
2022/10/21 10:33:36;;;;;;;16.10;11.52;;;15.60;99.90;;;;;;4822656;29;90631;-31
2022/10/21 10:36:04;;;;;;;15.68;14.07;;;15.60;99.90;;;;;;4839140;29;89889;-29
2022/10/21 10:38:35;;;;;;;;;;;15.60;99.90;;;;;;4841268;29;89701;-31
2022/10/21 10:41:06;;;;;;;14.38;11.18;;;15.70;99.90;;;;;;4841810;29;89117;-30
2022/10/21 10:43:34;;;;;;;17.80;14.70;;;15.70;99.90;;;;;;4841396;29;91281;-28
2022/10/21 10:46:03;;;;;;;13.15;11.80;;;15.80;99.90;;;;;;4843040;29;89097;-29
2022/10/21 10:48:40;;;;;;;13.25;11.15;;;15.80;99.90;;;;;;4843613;29;88722;-31
2022/10/21 10:51:23;;;;;;;17.70;12.00;;;15.80;99.90;;;;;;4844523;29;88843;-28
2022/10/21 10:54:27;;;;;;;16.88;12.43;;;15.90;99.90;;;;;;4843041;29;90302;-31
2022/10/21 10:56:59;;;;;;;13.20;11.90;;;15.90;99.90;;;;;;4831353;29;89762;-33
2022/10/21 10:59:48;;;;;;;18.63;13.07;;;16.00;99.90;;;;;;4844127;29;89679;-29
2022/10/21 11:02:42;;;;;;;13.32;11.73;;;16.00;99.90;;;;;;4842802;29;88861;-28
2022/10/21 11:05:18;;;;;;;13.32;12.02;;;16.00;99.90;;;;;;4843806;29;90086;-32
2022/10/21 11:07:59;;;;;;;13.93;12.52;;;16.00;99.90;;;;;;4842416;29;90879;-30
2022/10/21 11:10:36;;;;;;;15.73;12.73;;;16.00;99.90;;;;;;4843684;29;91526;-28
2022/10/21 11:13:10;;;;;;;13.35;11.50;;;16.00;99.90;;;;;;4843719;29;88674;-30
2022/10/21 11:16:14;;;;;;;17.10;12.77;;;16.00;99.90;;;;;;4843426;29;89446;-30
2022/10/21 11:18:55;;;;;;;15.38;12.88;;;16.10;99.90;;;;;;4813232;29;89885;-34
2022/10/21 11:21:23;;;;;;;15.07;12.30;;;16.10;99.90;;;;;;4821129;29;89817;-29
2022/10/21 11:23:58;;;;;;;;;;;16.20;99.90;;;;;;4843960;29;88606;-29
2022/10/21 11:26:50;;;;;;;16.88;12.00;;;16.10;99.90;;;;;;4845143;29;90411;-28
2022/10/21 11:29:34;;;;;;;18.30;13.13;;;16.20;99.90;;;;;;4844073;29;89570;-31
2022/10/21 11:32:10;;;;;;;17.13;11.57;;;16.20;99.90;;;;;;4842425;29;88974;-29
2022/10/21 11:34:47;;;;;;;14.43;12.07;;;16.20;99.90;;;;;;4842574;29;88733;-31
2022/10/21 11:37:37;;;;;;;16.53;12.97;;;16.20;99.90;;;;;;4843487;29;90075;-31
2022/10/21 11:40:23;;;;;;;14.07;11.20;;;16.30;99.90;;;;;;4842988;29;90078;-29
2022/10/21 11:42:51;;;;;;;14.23;10.52;;;16.30;99.90;;;;;;4843015;29;89949;-29
2022/10/21 11:45:20;;;;;;;15.13;10.45;;;16.30;99.90;;;;;;4843545;29;89712;-28
2022/10/21 11:48:10;;;;;;;15.40;10.32;;;16.30;99.90;;;;;;4842776;29;92054;-30
2022/10/21 11:51:13;;;;;;;19.50;11.38;;;16.30;99.90;;;;;;4843480;29;88618;-30
2022/10/21 11:53:58;;;;;;;15.30;11.18;;;16.40;99.90;;;;;;4824045;29;89627;-30
2022/10/21 11:56:29;;;;;;;14.13;10.32;;;16.40;99.90;;;;;;4842308;29;89591;-30
2022/10/21 11:59:16;;;;;;;15.48;9.80;;;16.40;99.90;;;;;;4843000;29;89877;-29
2022/10/21 12:01:45;;;;;;;16.30;10.37;;;16.50;99.90;;;;;;4843041;29;90774;-27
2022/10/21 12:04:34;;;;;;;15.68;11.20;;;16.50;99.90;;;;;;4843053;29;90802;-29
2022/10/21 12:07:09;;;;;;;9.48;8.38;;;16.50;99.90;;;;;;4842745;29;87498;-32
2022/10/21 12:10:10;;;;;;;9.07;8.25;;;16.50;99.90;;;;;;4843090;29;90446;-28
2022/10/21 12:12:41;;;;;;;12.60;9.13;;;16.60;99.90;;;;;;4843818;29;89740;-30
2022/10/21 12:15:19;;;;;;;12.15;8.43;;;16.60;99.90;;;;;;4826537;29;89310;-29
2022/10/21 12:17:47;;;;;;;11.95;8.02;;;16.60;99.90;;;;;;4843168;29;89290;-32
2022/10/21 12:20:16;;;;;;;;;;;16.60;99.90;;;;;;4844273;29;90324;-29
2022/10/21 12:22:42;;;;;;;14.85;9.68;;;16.70;99.90;;;;;;4844866;29;89744;-27
2022/10/21 12:25:18;;;;;;;14.20;9.30;;;16.70;99.90;;;;;;4842777;29;89639;-30
2022/10/21 12:27:52;;;;;;;11.10;8.38;;;16.80;99.90;;;;;;4842462;29;90281;-32
2022/10/21 12:30:29;;;;;;;15.50;9.57;;;16.70;99.90;;;;;;4842328;29;89229;-28
2022/10/21 12:33:27;;;;;;;12.30;7.90;;;16.80;99.90;;;;;;4842290;29;89666;-30
2022/10/21 12:36:10;;;;;;;14.07;8.70;;;16.80;99.90;;;;;;4824934;29;89620;-30
2022/10/21 12:38:43;;;;;;;13.18;9.05;;;16.80;99.90;;;;;;4824197;29;89154;-29
2022/10/21 12:41:35;;;;;;;10.10;8.77;;;16.90;99.90;;;;;;4824250;29;89962;-32
2022/10/21 12:44:00;;;;;;;14.77;8.35;;;16.80;99.90;;;;;;4823150;29;89683;-30
2022/10/21 12:47:06;;;;;;;14.15;8.38;;;16.90;99.90;;;;;;4824477;29;89769;-32
2022/10/21 12:49:35;;;;;;;13.73;8.35;;;16.90;99.90;;;;;;4772094;29;88947;-32